Latest Weather Observations for Forrest

IDW60801

Issued at 6:32 pm WST Wednesday 2 September 2015 (issued every 30 minutes, with the page automatically refreshed every 10 minutes)

About weather observations | Map of weather stations | Latest weather observations for WA | Other Formats
Station Details ID: 011052 Name: FORREST Lat: -30.85 Lon: 128.11 Height: 159.0 m
Data from the previous 72 hours. | See also: Recent months at Forrest
Date/Time
WST
Temp
°C
App
Temp
°C
Dew
Point
Rel
Hum
%
Delta-T
°C
Wind Press
QNH
hPa
Press
MSL
hPa
Rain
since 9 am
mm
Dir
 
Spd
km/h
Gust
km/h
Spd
kts
Gust
kts
02/06:30pm 12.3 8.6 7.8 74 2.2 S 17 22 9 12 1023.9 - 0.0
02/06:00pm 13.2 9.5 7.9 70 2.6 S 17 24 9 13 1023.4 1023.4 0.0
02/05:30pm 14.2 9.8 7.5 64 3.3 S 20 28 11 15 1022.9 - 0.0
02/05:00pm 15.6 9.9 6.6 55 4.4 S 26 33 14 18 1022.3 - 0.0
02/04:30pm 16.7 11.0 6.5 51 5.0 SSW 26 33 14 18 1022.1 - 0.0
02/04:00pm 16.9 10.7 6.1 49 5.3 SSW 28 35 15 19 1022.0 - 0.0
02/03:30pm 17.8 12.7 6.0 46 5.8 SSW 22 33 12 18 1021.7 - 0.0
02/03:00pm 17.3 10.6 5.6 46 5.7 S 30 43 16 23 1021.4 1021.3 0.0
02/02:30pm 18.4 11.7 5.6 43 6.3 SSW 30 43 16 23 1021.2 - 0.0
02/02:00pm 17.9 10.7 4.8 42 6.3 SSW 32 41 17 22 1021.1 - 0.0
02/01:30pm 17.9 11.2 5.5 44 6.1 SSW 30 43 16 23 1020.9 - 0.0
02/01:00pm 17.7 11.8 7.7 52 5.1 SSW 28 35 15 19 1020.8 - 0.0
02/12:30pm 17.3 9.7 7.6 53 4.9 SSW 37 50 20 27 1021.2 - 0.0
02/12:00pm 17.0 10.2 7.6 54 4.7 SSW 33 44 18 24 1021.3 1021.2 0.0
02/11:30am 14.8 7.4 8.5 66 3.2 SW 37 52 20 28 1021.5 - 0.0
02/11:27am 15.8 9.3 9.0 64 3.5 SW 33 52 18 28 1021.4 - 0.0
02/11:00am 15.4 8.3 7.9 61 3.8 SW 35 52 19 28 1021.6 - 0.0
02/10:30am 14.6 8.8 9.4 71 2.7 SW 30 41 16 22 1022.0 - 0.0
02/10:00am 14.2 7.7 9.0 71 2.7 SW 33 43 18 23 1022.2 - 0.0
02/09:30am 12.9 6.4 9.0 77 2.0 SW 33 43 18 23 1022.2 - 0.0
02/09:00am 12.3 5.8 9.1 81 1.6 WSW 33 43 18 23 1022.1 1022.1 0.2
02/08:30am 11.2 4.7 8.9 86 1.2 WSW 33 44 18 24 1021.8 - 0.2
02/08:00am 10.2 3.7 8.8 91 0.7 WSW 33 43 18 23 1021.4 - 0.2
02/07:30am 8.9 2.4 8.1 95 0.4 WSW 32 44 17 24 1021.0 - 0.2
02/07:00am 8.5 1.7 7.9 96 0.3 W 33 43 18 23 1020.2 - 0.2
02/06:30am 8.2 1.4 7.6 96 0.3 W 33 41 18 22 1019.7 - 0.2
02/06:00am 8.0 1.4 7.6 97 0.2 W 32 41 17 22 1019.4 1019.3 0.2
02/05:30am 7.9 1.0 7.3 96 0.3 W 33 43 18 23 1018.9 - 0.2
02/05:00am 7.6 0.8 6.9 95 0.3 W 32 39 17 21 1018.4 - 0.2
02/04:30am 7.6 1.5 6.7 94 0.4 W 28 39 15 21 1017.7 - 0.2
02/04:00am 7.1 0.5 6.2 94 0.4 W 30 35 16 19 1017.3 - 0.2
02/03:30am 7.4 0.6 6.7 95 0.3 W 32 41 17 22 1016.9 - 0.2
02/03:00am 8.0 1.1 7.4 96 0.3 W 33 43 18 23 1016.5 1016.5 0.2
02/02:30am 7.8 1.0 7.1 95 0.3 WSW 32 39 17 21 1016.6 - 0.2
02/02:00am 8.3 1.0 7.1 92 0.6 W 35 44 19 24 1016.3 - 0.0
02/01:30am 8.3 0.6 6.9 91 0.7 W 37 46 20 25 1016.0 - 0.0
02/01:00am 9.2 1.2 5.9 80 1.5 W 37 48 20 26 1015.8 - 0.0
02/12:52am 9.0 1.1 6.1 82 1.3 WSW 37 56 20 30 1015.9 - 0.0
02/12:30am 9.1 0.0 5.8 80 1.5 W 43 56 23 30 1015.7 - 0.0
02/12:00am 8.9 -0.5 5.6 80 1.5 W 44 57 24 31 1015.5 1015.4 0.0
 
Date/Time
WST
Temp
°C
App
Temp
°C
Dew
Point
Rel
Hum
%
Delta-T
°C
Wind Press
QNH
hPa
Press
MSL
hPa
Rain
since 9 am
mm
Dir
 
Spd
km/h
Gust
km/h
Spd
kts
Gust
kts
01/11:31pm 9.3 -0.1 5.3 76 1.8 W 44 63 24 34 1015.3 - 0.0
01/11:30pm 9.3 -0.5 5.3 76 1.8 W 46 63 25 34 1015.3 - 0.0
01/11:18pm 9.3 -0.5 5.1 75 1.9 W 46 65 25 35 1015.1 - 0.0
01/11:00pm 9.2 -1.5 4.6 73 2.1 W 50 67 27 36 1014.9 - 0.0
01/10:30pm 9.2 -0.4 4.6 73 2.1 W 44 59 24 32 1015.0 - 0.0
01/10:19pm 9.3 -1.4 4.5 72 2.1 W 50 72 27 39 1014.8 - 0.0
01/10:00pm 9.2 -0.7 4.6 73 2.1 W 46 61 25 33 1014.9 - 0.0
01/09:30pm 9.2 -0.2 4.6 73 2.1 W 43 57 23 31 1014.7 - 0.0
01/09:00pm 9.1 0.1 4.3 72 2.1 W 41 54 22 29 1014.6 1014.5 0.0
01/08:30pm 9.1 0.8 4.3 72 2.1 W 37 46 20 25 1014.7 - 0.0
01/08:00pm 9.3 1.1 4.5 72 2.1 W 37 46 20 25 1014.4 - 0.0
01/07:30pm 9.7 1.8 4.3 69 2.4 W 35 44 19 24 1014.0 - 0.0
01/07:00pm 10.4 2.1 4.1 65 2.8 W 37 48 20 26 1013.7 - 0.0
01/06:30pm 10.8 3.4 5.1 68 2.6 WSW 33 43 18 23 1013.3 - 0.0
01/06:00pm 11.2 4.3 4.4 63 3.1 WSW 30 41 16 22 1012.8 1012.7 0.0
01/05:55pm 11.5 4.4 3.8 59 3.5 WSW 30 39 16 21 1012.7 - 0.0
01/05:33pm 12.3 3.8 3.3 54 4.0 W 37 59 20 32 1012.1 - 0.0
01/05:30pm 12.2 3.7 3.2 54 4.0 W 37 46 20 25 1012.1 - 0.0
01/05:00pm 12.4 2.8 3.4 54 4.0 W 43 57 23 31 1011.4 - 0.0
01/04:38pm 13.0 4.2 3.4 52 4.3 W 39 59 21 32 1011.0 - 0.0
01/04:30pm 13.1 3.5 3.2 51 4.4 W 43 54 23 29 1010.9 - 0.0
01/04:00pm 13.4 3.2 3.2 50 4.6 W 46 61 25 33 1010.4 - 0.0
01/03:30pm 13.7 3.2 3.8 51 4.5 W 48 61 26 33 1010.2 - 0.0
01/03:05pm 14.6 3.6 3.1 46 5.2 W 50 69 27 37 1009.8 - 0.0
01/03:00pm 14.2 3.9 2.8 46 5.1 W 46 63 25 34 1009.8 1009.7 0.0
01/02:46pm 14.5 4.9 3.3 47 5.1 W 43 61 23 33 1009.6 - 0.0
01/02:30pm 13.7 3.8 4.8 55 4.2 W 46 59 25 32 1009.6 - 0.0
01/02:00pm 12.5 3.1 7.0 69 2.7 W 46 65 25 35 1009.8 - 0.0
01/01:49pm 13.8 3.9 4.7 54 4.2 W 46 65 25 35 1009.4 - 0.0
01/01:30pm 13.6 2.8 3.9 52 4.4 W 50 61 27 33 1009.5 - 0.0
01/01:00pm 14.5 3.3 4.2 50 4.8 W 52 67 28 36 1009.4 - 0.0
01/12:38pm 15.2 4.9 4.9 50 4.9 W 48 67 26 36 1009.3 - 0.0
01/12:30pm 14.5 3.3 3.9 49 4.9 W 52 67 28 36 1009.2 - 0.0
01/12:00pm 13.5 2.9 3.3 50 4.6 W 48 67 26 36 1009.3 1009.2 0.0
01/11:53am 13.1 2.7 4.3 55 4.0 W 48 67 26 36 1009.4 - 0.0
01/11:30am 13.8 3.7 3.6 50 4.6 WSW 46 61 25 33 1009.6 - 0.0
01/11:14am 14.4 3.7 4.4 51 4.7 W 50 69 27 37 1009.8 - 0.0
01/11:00am 14.1 3.5 4.9 54 4.3 W 50 61 27 33 1009.8 - 0.0
01/10:40am 14.0 4.3 5.6 57 4.0 W 46 70 25 38 1009.8 - 0.0
01/10:30am 13.2 3.0 5.1 58 3.8 W 48 59 26 32 1010.0 - 0.0
01/10:00am 14.0 4.9 6.8 62 3.5 W 44 59 24 32 1010.0 - 0.0
01/09:30am 13.0 4.2 7.9 71 2.5 W 44 56 24 30 1009.9 - 0.0
01/09:00am 12.5 3.7 8.0 74 2.2 W 44 57 24 31 1009.9 1009.8 6.0
01/08:30am 13.2 5.6 8.9 75 2.2 WSW 39 52 21 28 1009.8 - 6.0
01/08:00am 12.6 5.2 8.5 76 2.1 WSW 37 46 20 25 1009.7 - 6.0
01/07:30am 11.8 5.0 9.2 84 1.3 WSW 35 44 19 24 1009.5 - 6.0
01/07:00am 11.7 5.6 9.8 88 1.0 WSW 32 43 17 23 1009.2 - 6.0
01/06:30am 12.0 6.5 10.7 92 0.7 W 30 39 16 21 1008.6 - 6.0
01/06:00am 12.0 8.9 11.5 97 0.3 WNW 19 22 10 12 1008.2 1008.1 5.8
01/05:30am 11.5 9.0 11.2 98 0.2 NW 15 17 8 9 1008.1 - 5.8
01/05:00am 11.1 8.8 10.6 97 0.3 NW 13 15 7 8 1008.1 - 5.8
01/04:30am 11.2 9.7 10.7 97 0.3 WNW 9 11 5 6 1008.2 - 5.8
01/04:00am 11.3 9.8 10.5 95 0.4 WNW 9 11 5 6 1007.8 - 5.8
01/03:47am 11.5 10.0 10.7 95 0.4 WNW 9 107 5 58 1008.1 - 5.8
01/03:37am 11.4 -8.1 10.6 95 0.4 WNW 104 106 56 57 1008.1 - 5.8
01/03:30am 11.3 -8.3 10.5 95 0.4 SSE 104 106 56 57 1008.1 - 4.6
01/03:12am 11.4 -7.5 10.3 93 0.6 SSE 100 107 54 58 1008.1 - 4.6
01/03:11am 11.4 2.0 10.3 93 0.6 SSE 50 107 27 58 1008.1 - 4.6
01/03:00am 11.6 9.3 10.3 92 0.7 WSW 13 17 7 9 1008.6 1008.5 4.2
01/02:42am 12.1 9.3 10.0 87 1.1 SW 15 43 8 23 1009.0 - 2.4
01/02:33am 13.2 5.9 10.2 82 1.6 WSW 39 48 21 26 1009.3 - 0.2
01/02:30am 12.8 6.9 10.3 85 1.3 SW 32 48 17 26 1008.7 - 0.2
01/02:24am 11.7 6.2 10.4 92 0.7 SW 30 48 16 26 1009.3 - 0.2
01/02:21am 11.2 5.1 10.3 94 0.5 SW 33 48 18 26 1009.4 - 0.2
01/02:00am 10.6 7.7 9.5 93 0.6 E 15 17 8 9 1007.8 - 0.2
01/01:30am 11.2 7.5 9.6 90 0.8 ENE 19 22 10 12 1008.3 - 0.2
01/01:00am 12.4 9.5 9.8 84 1.3 ENE 15 28 8 15 1009.2 - 0.2
01/12:43am 12.4 5.8 10.0 85 1.2 WSW 35 54 19 29 1010.5 - 0.0
01/12:41am 12.3 6.6 9.9 85 1.2 W 30 44 16 24 1010.8 - 0.0
01/12:30am 12.2 8.5 9.6 84 1.3 NE 19 22 10 12 1009.5 - 0.0
01/12:00am 12.0 8.7 9.7 86 1.2 ENE 17 20 9 11 1009.9 1009.8 0.0
 
Date/Time
WST
Temp
°C
App
Temp
°C
Dew
Point
Rel
Hum
%
Delta-T
°C
Wind Press
QNH
hPa
Press
MSL
hPa
Rain
since 9 am
mm
Dir
 
Spd
km/h
Gust
km/h
Spd
kts
Gust
kts
31/11:30pm 12.0 8.7 9.6 85 1.2 ENE 17 20 9 11 1010.5 - 0.0
31/11:00pm 11.8 8.4 9.2 84 1.3 ENE 17 19 9 10 1010.9 - 0.0
31/10:30pm 12.2 8.3 9.4 83 1.4 ENE 20 24 11 13 1011.4 - 0.0
31/10:00pm 12.7 8.9 9.7 82 1.5 E 20 26 11 14 1011.9 - 0.0
31/09:30pm 12.7 8.9 9.7 82 1.5 E 20 24 11 13 1012.3 - 0.0
31/09:00pm 12.7 9.1 9.7 82 1.5 ESE 19 22 10 12 1012.8 1012.8 0.0
31/08:30pm 12.9 9.3 9.7 81 1.6 ESE 19 24 10 13 1013.1 - 0.0
31/08:00pm 13.5 9.3 9.7 78 2.0 SE 22 28 12 15 1013.3 - 0.0
31/07:30pm 13.9 10.2 9.3 74 2.4 SE 19 24 10 13 1013.5 - 0.0
31/07:00pm 14.6 11.2 9.2 70 2.8 SE 17 20 9 11 1013.4 - 0.0
31/06:30pm 15.6 11.9 9.5 67 3.2 SE 19 26 10 14 1013.2 - 0.0
31/06:00pm 16.4 12.5 9.6 64 3.6 SE 20 26 11 14 1013.1 1013.1 0.0
31/05:30pm 17.2 13.3 9.6 61 4.0 SE 20 30 11 16 1013.2 - 0.0
31/05:00pm 18.5 13.9 9.8 57 4.6 SE 24 33 13 18 1013.0 - 0.0
31/04:30pm 19.9 14.6 10.0 53 5.3 SE 28 35 15 19 1012.8 - 0.0
31/04:00pm 19.8 14.9 10.0 53 5.3 SE 26 37 14 20 1012.9 - 0.0
31/03:30pm 20.9 17.5 11.3 54 5.3 ESE 20 24 11 13 1013.1 - 0.0
31/03:00pm 21.2 19.2 11.5 54 5.4 E 13 20 7 11 1013.4 1013.4 0.0
31/02:30pm 21.8 19.8 11.5 52 5.8 ESE 13 20 7 11 1013.6 - 0.0
31/02:00pm 21.4 20.1 11.1 52 5.7 ENE 9 15 5 8 1013.9 - 0.0
31/01:30pm 21.9 20.2 11.3 51 5.9 ENE 11 22 6 12 1014.4 - 0.0
31/01:00pm 21.5 19.4 11.2 52 5.7 ESE 13 20 7 11 1014.7 - 0.0
31/12:30pm 21.1 19.1 11.4 54 5.4 ESE 13 19 7 10 1015.1 - 0.0
31/12:00pm 20.6 17.6 11.8 57 4.9 SE 19 30 10 16 1015.4 1015.4 0.0
31/11:30am 19.8 16.9 12.3 62 4.2 SE 19 28 10 15 1016.0 - 0.0
31/11:00am 18.4 15.7 11.7 65 3.7 SE 17 22 9 12 1016.5 - 0.0
31/10:30am 18.3 15.2 12.1 67 3.5 SSE 20 28 11 15 1016.9 - 0.0
31/10:00am 17.0 14.7 11.9 72 2.8 SSE 15 22 8 12 1017.8 - 0.0
31/09:30am 16.5 14.7 12.1 75 2.4 S 13 20 7 11 1018.5 - 0.0
31/09:00am 16.1 14.2 11.9 76 2.3 SSE 13 19 7 10 1018.6 1018.6 0.0
31/08:30am 14.7 11.7 12.0 84 1.5 SSE 19 24 10 13 1018.6 - 0.0
31/08:00am 14.0 10.9 11.7 86 1.2 S 19 20 10 11 1018.7 - 0.0
31/07:30am 13.4 10.7 11.6 89 1.0 S 17 24 9 13 1018.5 - 0.0
31/07:00am 12.3 10.2 11.2 93 0.6 S 13 19 7 10 1018.5 - 0.0
31/06:30am 12.0 9.5 11.2 95 0.4 S 15 19 8 10 1018.3 - 0.0
31/06:00am 11.6 9.5 11.0 96 0.3 SSW 13 17 7 9 1018.1 1018.2 0.0
31/05:30am 12.0 9.2 11.2 95 0.4 S 17 22 9 12 1017.8 - 0.0
31/05:00am 12.2 9.9 11.6 96 0.3 S 15 20 8 11 1018.0 - 0.0
31/04:30am 11.1 8.8 10.6 97 0.3 S 13 17 7 9 1017.7 - 0.0
31/04:00am 11.4 9.2 10.8 96 0.3 S 13 17 7 9 1017.4 - 0.0
31/03:30am 11.8 9.3 11.2 96 0.3 S 15 19 8 10 1017.4 - 0.0
31/03:00am 12.3 9.9 11.5 95 0.4 S 15 20 8 11 1017.7 1017.8 0.0
31/02:30am 12.3 9.5 11.4 94 0.5 S 17 20 9 11 1017.5 - 0.0
31/02:00am 11.8 9.3 11.2 96 0.3 S 15 19 8 10 1017.8 - 0.0
31/01:30am 11.5 9.3 10.7 95 0.4 S 13 15 7 8 1018.1 - 0.0
31/01:00am 11.8 9.3 10.9 94 0.5 S 15 19 8 10 1018.6 - 0.0
31/12:30am 11.8 9.6 10.9 94 0.5 SSE 13 15 7 8 1018.8 - 0.0
31/12:00am 11.4 9.3 9.8 90 0.8 SSE 11 13 6 7 1018.9 1018.9 0.0
 
Date/Time
WST
Temp
°C
App
Temp
°C
Dew
Point
Rel
Hum
%
Delta-T
°C
Wind Press
QNH
hPa
Press
MSL
hPa
Rain
since 9 am
mm
Dir
 
Spd
km/h
Gust
km/h
Spd
kts
Gust
kts
30/11:30pm 11.9 10.2 10.0 88 1.0 SSE 9 13 5 7 1019.0 - 0.0
30/11:00pm 12.5 9.8 10.2 86 1.2 S 15 17 8 9 1018.7 - 0.0
30/10:30pm 13.2 10.9 10.4 83 1.5 SSE 13 17 7 9 1018.9 - 0.0
30/10:00pm 14.1 11.4 10.5 79 1.9 S 15 20 8 11 1018.9 - 0.0
30/09:30pm 14.7 12.0 10.3 75 2.3 SSE 15 20 8 11 1019.2 - 0.0
30/09:00pm 15.1 11.4 9.5 69 2.9 S 19 26 10 14 1018.7 1018.7 0.0
30/08:30pm 16.1 12.0 8.8 62 3.8 S 20 28 11 15 1018.5 - 0.0
30/08:00pm 16.9 12.7 8.1 56 4.5 S 20 26 11 14 1017.8 - 0.0
30/07:30pm 17.9 13.7 12.4 70 3.1 SSE 26 35 14 19 1017.1 - 0.0
30/07:00pm 19.2 14.1 10.7 58 4.6 S 28 37 15 20 1016.1 - 0.0

Other Formats:

Comma delimited format used in spreadsheet applications
http://www.bom.gov.au/fwo/IDW60801/IDW60801.95646.axf

JavaScript Object Notation format (JSON) in row-major order
http://www.bom.gov.au/fwo/IDW60801/IDW60801.95646.json